Terminal Aerodrome Forecast
Issued by NWS

Home | Current Version | Previous Version | Text Only | Print | Product List | Glossary Off
Versions: 1 2 3 4 5 6 7 8 9 10 11 12 13 14 15 16 17 18 19 20 21 22 23 24 25 26 27 28 29

689
FTUS43 KGRB 212339
TAFRHI
TAF
KRHI 212339Z 2200/2224 18005KT P6SM SCT120 BKN250
     FM220400 20006KT P6SM BKN100 WS012/23035KT
     FM221300 24007KT P6SM SCT090 BKN250=

USA.gov is the U.S. government's official web portal to all federal, state and local government web resources and services.